Time;durP1;ratioP1;P1;durP2;ratioP2;P2;SDS_P1;SDS_P2;PMS_P1;PMS_P2;Temp;Humidity;BMP_temperature;BMP_pressure;BME280_temperature;BME280_humidity;BME280_pressure;Samples;Min_cycle;Max_cycle;Signal;HPM_P1;HPM_P2
2022/08/12 00:43:29;;;;;;;6.40;1.65;;;;;;;14.68;100.00;156210.47;4908750;29;20510;-76
2022/08/12 00:48:40;;;;;;;7.18;1.88;;;;;;;14.67;100.00;156206.63;4910427;29;20040;-76
2022/08/12 00:51:07;;;;;;;2.20;1.70;;;;;;;14.66;100.00;156205.34;4911547;29;20119;-78
2022/08/12 00:53:34;;;;;;;5.00;1.88;;;;;;;14.69;100.00;156211.75;4912284;29;20048;-77
2022/08/12 00:56:01;;;;;;;4.53;1.50;;;;;;;14.69;100.00;156213.06;4914029;29;20040;-77
2022/08/12 00:58:28;;;;;;;3.60;1.85;;;;;;;14.73;100.00;156222.03;4906321;29;20032;-77
2022/08/12 01:01:05;;;;;;;7.88;1.90;;;;;;;14.72;100.00;156220.75;4921336;29;20043;-76
2022/08/12 01:11:53;;;;;;;5.97;1.90;;;;;;;14.72;100.00;156219.50;4913259;29;20070;-76
2022/08/12 01:14:22;;;;;;;6.45;1.80;;;;;;;14.68;100.00;156209.22;4893660;29;20123;-77
2022/08/12 01:16:53;;;;;;;12.20;2.42;;;;;;;14.69;100.00;156213.06;4909346;29;20071;-78
2022/08/12 01:19:20;;;;;;;9.23;2.10;;;;;;;14.71;100.00;156216.91;4913210;29;21045;-77
2022/08/12 01:22:01;;;;;;;12.57;2.00;;;;;;;14.70;100.00;156215.63;4928509;29;20040;-76
2022/08/12 01:24:46;;;;;;;7.85;2.00;;;;;;;14.62;100.00;156193.75;4912135;29;20944;-78
2022/08/12 01:27:13;;;;;;;4.95;2.25;;;;;;;14.58;100.00;156184.78;4908045;29;20036;-77
2022/08/12 01:29:43;;;;;;;13.52;1.98;;;;;;;14.50;100.00;156164.13;4918590;29;20118;-76
2022/08/12 01:32:14;;;;;;;7.25;1.80;;;;;;;14.40;100.00;156139.69;4912264;29;20054;-77
2022/08/12 01:34:49;;;;;;;2.50;1.73;;;;;;;14.37;100.00;156131.97;4895918;29;20036;-76
2022/08/12 01:37:19;;;;;;;6.80;2.00;;;;;;;14.25;100.00;156102.41;4888937;29;20414;-77
2022/08/12 01:39:51;;;;;;;2.58;1.70;;;;;;;14.23;100.00;156096.00;4912997;29;20051;-77
2022/08/12 01:42:20;;;;;;;3.70;2.33;;;;;;;14.16;100.00;156079.25;4907432;29;20115;-78
2022/08/12 01:44:48;;;;;;;1.85;1.60;;;;;;;14.11;100.00;156067.69;4911932;29;20048;-77
2022/08/12 01:47:22;;;;;;;3.00;1.80;;;;;;;14.14;100.00;156074.09;4911875;29;20040;-77
2022/08/12 01:49:53;;;;;;;4.30;2.10;;;;;;;14.12;100.00;156068.97;4912396;29;20052;-77
2022/08/12 01:52:27;;;;;;;3.35;1.80;;;;;;;14.14;100.00;156075.38;4904568;29;20036;-77
2022/08/12 01:54:53;;;;;;;5.57;1.98;;;;;;;14.10;100.00;156063.84;4912424;29;20040;-77
2022/08/12 01:57:38;;;;;;;10.02;1.90;;;;;;;14.10;100.00;156063.84;4925075;29;20032;-77
2022/08/12 02:00:12;;;;;;;2.22;1.80;;;;;;;14.04;100.00;156049.69;4889198;29;20076;-76
2022/08/12 02:02:52;;;;;;;3.90;2.33;;;;;;;14.04;100.00;156049.69;4912066;29;20696;-78
2022/08/12 02:11:57;;;;;;;8.98;1.90;;;;;;;14.01;100.00;156043.28;4931105;29;20461;-77
2022/08/12 02:14:50;;;;;;;3.10;1.98;;;;;;;13.99;100.00;156038.13;4887680;29;20402;-77
2022/08/12 02:17:34;;;;;;;;;;;;;;;13.93;100.00;156022.69;4914697;29;20035;-77
2022/08/12 02:20:20;;;;;;;5.63;1.83;;;;;;;13.85;100.00;156002.13;4910906;29;19974;-76
2022/08/12 02:22:46;;;;;;;2.15;1.70;;;;;;;13.77;100.00;155982.84;4911946;29;20051;-77
2022/08/12 02:25:25;;;;;;;4.43;1.95;;;;;;;13.69;100.00;155960.97;4908189;29;20044;-77
2022/08/12 02:27:54;;;;;;;10.82;2.40;;;;;;;13.62;100.00;155945.56;4912959;29;20474;-77
2022/08/12 02:30:24;;;;;;;6.13;2.13;;;;;;;13.55;100.00;155926.28;4889702;29;20040;-76
2022/08/12 02:32:53;;;;;;;4.65;2.20;;;;;;;13.54;100.00;155923.69;4912205;29;20821;-77
2022/08/12 02:35:21;;;;;;;9.25;1.95;;;;;;;13.49;100.00;155910.88;4927033;29;20036;-76
2022/08/12 02:37:50;;;;;;;5.72;2.08;;;;;;;13.46;100.00;155904.44;4881252;29;20574;-77
2022/08/12 02:40:17;;;;;;;4.45;2.28;;;;;;;13.36;100.00;155878.75;4892546;29;20062;-77
2022/08/12 02:42:52;;;;;;;6.18;2.72;;;;;;;13.33;100.00;155871.00;4930222;29;20040;-77
2022/08/12 02:45:24;;;;;;;3.17;2.30;;;;;;;13.31;100.00;155865.88;4909828;29;20112;-78
2022/08/12 02:47:53;;;;;;;2.97;2.00;;;;;;;13.27;100.00;155855.56;4891343;29;20129;-77
2022/08/12 02:50:21;;;;;;;3.88;2.10;;;;;;;13.21;100.00;155842.69;4914091;29;20049;-78
2022/08/12 02:52:50;;;;;;;4.70;1.95;;;;;;;13.25;100.00;155852.97;4914615;29;20095;-79
2022/08/12 02:55:21;;;;;;;7.93;2.03;;;;;;;13.25;100.00;155851.69;4912340;29;20040;-77
2022/08/12 02:57:50;;;;;;;3.97;1.90;;;;;;;13.24;100.00;155850.41;4915597;29;20036;-77
2022/08/12 03:00:17;;;;;;;3.60;1.90;;;;;;;13.25;100.00;155851.69;4929819;29;20036;-79
2022/08/12 03:02:51;;;;;;;4.03;2.40;;;;;;;13.18;100.00;155833.69;4929462;29;20036;-77
2022/08/12 03:05:22;;;;;;;7.60;2.10;;;;;;;13.15;100.00;155827.28;4915549;29;20040;-76
2022/08/12 03:07:52;;;;;;;6.00;2.33;;;;;;;13.15;100.00;155827.28;4907165;29;20041;-78
2022/08/12 03:10:23;;;;;;;5.57;2.10;;;;;;;13.11;100.00;155815.69;4895686;29;20505;-77
2022/08/12 03:12:53;;;;;;;9.65;2.63;;;;;;;13.05;100.00;155801.56;4914573;29;20040;-78
2022/08/12 03:15:21;;;;;;;3.83;2.17;;;;;;;13.02;100.00;155793.88;4906604;29;20032;-78
2022/08/12 03:17:56;;;;;;;4.60;2.45;;;;;;;13.00;100.00;155790.00;4915583;29;20095;-79
2022/08/12 03:20:22;;;;;;;5.38;2.20;;;;;;;12.95;100.00;155775.88;4914232;29;20054;-77
2022/08/12 03:22:50;;;;;;;8.00;3.42;;;;;;;12.93;100.00;155770.75;4913336;29;20041;-78
2022/08/12 03:25:26;;;;;;;7.45;2.33;;;;;;;12.93;100.00;155770.75;4895919;29;20190;-77
2022/08/12 03:27:57;;;;;;;5.65;2.30;;;;;;;12.90;100.00;155763.03;4930100;29;20044;-77
2022/08/12 03:30:25;;;;;;;3.35;2.40;;;;;;;12.81;100.00;155742.47;4906725;29;20040;-78
2022/08/12 03:32:53;;;;;;;5.45;2.30;;;;;;;12.83;100.00;155746.34;4901521;29;20043;-76
2022/08/12 03:35:26;;;;;;;6.80;2.50;;;;;;;12.82;100.00;155745.03;4898214;29;20044;-77
2022/08/12 03:37:57;;;;;;;7.50;2.50;;;;;;;12.86;100.00;155754.03;4914421;29;20545;-77
2022/08/12 04:00:23;;;;;;;4.78;2.60;;;;;;;12.65;100.00;155702.63;4910820;29;20028;-78
2022/08/12 04:03:00;;;;;;;11.75;2.63;;;;;;;12.66;100.00;155705.22;4897504;29;20041;-78
2022/08/12 04:05:29;;;;;;;5.82;2.90;;;;;;;12.68;100.00;155709.09;4914083;29;20036;-78
2022/08/12 04:07:56;;;;;;;6.70;2.70;;;;;;;12.66;100.00;155703.94;4913533;29;20036;-77
2022/08/12 04:13:13;;;;;;;12.10;2.60;;;;;;;12.69;100.00;155710.34;4894721;29;20043;-77
2022/08/12 04:13:17;;;;;;;12.65;2.70;;;;;;;12.68;100.00;155709.09;4914044;29;20024;-78
2022/08/12 04:15:44;;;;;;;13.05;2.95;;;;;;;12.72;100.00;155718.09;4895117;29;20041;-77
2022/08/12 04:18:16;;;;;;;7.65;2.33;;;;;;;12.72;100.00;155718.09;4913190;29;20088;-77
2022/08/12 04:20:42;;;;;;;5.97;2.40;;;;;;;12.81;100.00;155741.22;4911903;29;20040;-77
2022/08/12 04:23:14;;;;;;;10.82;2.92;;;;;;;12.85;100.00;155752.75;4908538;29;20426;-78
2022/08/12 04:25:40;;;;;;;13.70;3.25;;;;;;;12.89;100.00;155761.75;4885721;29;20029;-77
2022/08/12 04:28:08;;;;;;;11.63;2.80;;;;;;;12.95;100.00;155777.16;4912389;29;20024;-77
2022/08/12 04:30:35;;;;;;;11.38;3.00;;;;;;;13.00;100.00;155790.00;4902811;29;20047;-77
2022/08/12 04:33:03;;;;;;;8.23;2.65;;;;;;;13.10;100.00;155813.16;4912882;29;20116;-78
2022/08/12 04:35:30;;;;;;;11.02;3.13;;;;;;;13.15;100.00;155826.00;4909248;29;20551;-75
2022/08/12 04:37:57;;;;;;;11.05;3.20;;;;;;;13.17;100.00;155832.41;4892380;29;20126;-76
2022/08/12 04:40:25;;;;;;;13.38;3.42;;;;;;;13.22;100.00;155843.97;4896936;29;20055;-78
2022/08/12 04:42:50;;;;;;;16.38;3.22;;;;;;;13.34;100.00;155873.59;4890331;29;20039;-77
2022/08/12 04:45:17;;;;;;;9.25;3.50;;;;;;;13.40;100.00;155889.00;4928686;29;20039;-78
2022/08/12 04:47:43;;;;;;;10.13;3.30;;;;;;;13.44;100.00;155900.56;4928361;29;20040;-77
2022/08/12 04:50:13;;;;;;;10.38;3.05;;;;;;;13.45;100.00;155901.88;4909054;29;20032;-77
2022/08/12 04:52:40;;;;;;;10.88;2.90;;;;;;;13.49;100.00;155910.88;4911725;29;20096;-77
2022/08/12 04:55:09;;;;;;;15.93;2.95;;;;;;;13.51;100.00;155917.28;4913198;29;20028;-77
2022/08/12 04:57:35;;;;;;;12.18;2.90;;;;;;;13.61;100.00;155941.69;4894908;29;20538;-77
2022/08/12 05:00:15;;;;;;;10.10;3.22;;;;;;;13.70;100.00;155964.84;4896511;29;20039;-76
2022/08/12 05:02:41;;;;;;;6.60;3.10;;;;;;;13.82;100.00;155994.41;4892636;29;20028;-76
2022/08/12 05:05:19;;;;;;;9.65;3.35;;;;;;;13.88;100.00;156009.84;4911815;28;20485;-77
2022/08/12 05:07:48;;;;;;;14.10;3.38;;;;;;;14.04;100.00;156049.69;4892139;29;20036;-78
2022/08/12 05:10:15;;;;;;;7.78;3.22;;;;;;;14.23;100.00;156097.25;4912248;29;20048;-77
2022/08/12 05:12:43;;;;;;;14.70;3.28;;;;;;;14.41;100.00;156143.56;4881650;29;20039;-77
2022/08/12 05:15:13;;;;;;;5.88;2.88;;;;;;;14.61;100.00;156192.47;4927951;29;20039;-76
2022/08/12 05:17:40;;;;;;;5.75;2.80;;;;;;;14.73;100.00;156222.03;4893884;29;20037;-77
2022/08/12 05:20:11;;;;;;;4.60;2.65;;;;;;;14.81;100.00;156242.66;4904876;29;20036;-76
2022/08/12 05:22:37;;;;;;;6.68;2.78;;;;;;;14.86;100.00;156255.53;4911294;29;20403;-77
2022/08/12 05:25:05;;;;;;;6.70;2.58;;;;;;;15.01;100.00;156291.50;4896092;29;20738;-77
2022/08/12 05:27:32;;;;;;;8.60;3.22;;;;;;;15.14;100.00;156326.28;4899595;29;20044;-76
2022/08/12 05:29:58;;;;;;;7.85;2.40;;;;;;;15.31;100.00;156368.75;4889500;29;20032;-77
2022/08/12 05:32:24;;;;;;;7.00;2.47;;;;;;;15.44;100.00;156399.59;4895764;29;20043;-78
2022/08/12 05:34:52;;;;;;;5.13;2.63;;;;;;;15.67;100.00;156458.81;4895896;29;20040;-78
2022/08/12 05:37:21;;;;;;;7.97;2.47;;;;;;;15.74;100.00;156476.84;4910561;29;20039;-76
2022/08/12 05:39:46;;;;;;;5.60;2.45;;;;;;;15.82;100.00;156494.88;4912244;29;20130;-76
2022/08/12 05:42:12;;;;;;;11.75;2.63;;;;;;;15.98;100.00;156534.78;4891082;29;20447;-77
2022/08/12 05:44:38;;;;;;;5.38;2.50;;;;;;;16.12;100.00;156572.13;4898603;29;20168;-77
2022/08/12 05:47:03;;;;;;;6.18;2.47;;;;;;;16.30;100.00;156617.16;4904718;29;20075;-76
2022/08/12 05:49:29;;;;;;;9.25;2.60;;;;;;;16.54;100.00;156676.41;4920607;29;20028;-76
2022/08/12 05:51:56;;;;;;;6.82;2.60;;;;;;;16.78;98.75;156736.88;4889777;29;20028;-77
2022/08/12 05:54:22;;;;;;;5.30;1.95;;;;;;;16.95;97.91;156779.44;4920720;29;20040;-77
2022/08/12 05:56:48;;;;;;;7.60;2.28;;;;;;;17.15;97.29;156829.69;4896140;29;20048;-77
2022/08/12 05:59:13;;;;;;;4.68;2.17;;;;;;;17.30;96.57;156867.03;4896956;29;20020;-77
2022/08/12 06:01:40;;;;;;;2.30;1.80;;;;;;;17.32;96.84;156872.19;4881574;29;20046;-76
2022/08/12 06:04:08;;;;;;;6.05;2.17;;;;;;;17.32;99.18;156872.19;4913017;29;20040;-77
2022/08/12 06:06:38;;;;;;;4.50;2.13;;;;;;;17.31;97.79;156869.66;4888794;29;20038;-77
2022/08/12 06:09:03;;;;;;;2.42;2.17;;;;;;;17.52;97.39;156922.44;4914196;29;20036;-77
2022/08/12 06:11:29;;;;;;;3.65;2.40;;;;;;;17.63;96.60;156949.47;4897261;29;20036;-76
2022/08/12 06:13:57;;;;;;;2.63;2.03;;;;;;;17.77;96.02;156984.28;4925691;29;20134;-78
2022/08/12 06:16:23;;;;;;;7.43;2.17;;;;;;;18.02;92.91;157047.47;4915139;29;20220;-78
2022/08/12 06:18:49;;;;;;;7.05;2.20;;;;;;;18.12;92.08;157073.25;4914097;29;20512;-77
2022/08/12 06:21:17;;;;;;;4.97;2.28;;;;;;;18.22;91.72;157097.75;4914665;29;20043;-77
2022/08/12 06:23:44;;;;;;;5.78;2.30;;;;;;;18.29;91.94;157115.78;4916822;29;20046;-77
2022/08/12 06:26:14;;;;;;;6.60;2.13;;;;;;;18.43;90.40;157150.56;4931089;29;20114;-77
2022/08/12 06:28:43;;;;;;;3.97;2.10;;;;;;;18.47;92.00;157160.88;4899501;29;20043;-77
2022/08/12 06:31:15;;;;;;;4.63;2.50;;;;;;;18.61;91.14;157195.66;4893418;29;20035;-77
2022/08/12 06:33:46;;;;;;;6.30;2.20;;;;;;;18.82;90.40;157248.63;4914495;29;20525;-78
2022/08/12 06:36:13;;;;;;;9.90;2.38;;;;;;;19.00;88.55;157295.00;4913600;29;20305;-77
2022/08/12 06:38:40;;;;;;;6.35;2.30;;;;;;;19.17;88.89;157336.25;4915036;29;20032;-77
2022/08/12 06:43:52;;;;;;;7.45;2.03;;;;;;;19.47;88.24;157411.06;4915925;29;20048;-79
2022/08/12 06:46:28;;;;;;;4.22;2.25;;;;;;;19.59;86.93;157443.31;4914805;29;20032;-78
2022/08/12 06:48:57;;;;;;;10.93;2.00;;;;;;;19.65;87.68;157458.78;4908708;29;20031;-78
2022/08/12 06:51:28;;;;;;;7.40;2.35;;;;;;;19.84;84.82;157505.28;4908666;29;20115;-77
2022/08/12 06:53:54;;;;;;;5.05;2.10;;;;;;;20.01;82.25;157549.13;4901106;29;20044;-77
2022/08/12 06:56:20;;;;;;;14.43;2.50;;;;;;;20.15;82.75;157583.94;4931831;29;20038;-78
2022/08/12 06:58:46;;;;;;;6.47;2.30;;;;;;;20.32;83.58;157625.25;4916085;29;20095;-77
2022/08/12 07:01:12;;;;;;;4.72;1.73;;;;;;;20.38;82.11;157640.72;4913683;29;20036;-78
2022/08/12 07:03:38;;;;;;;5.93;2.15;;;;;;;20.48;82.13;157666.56;4900152;29;20045;-77
2022/08/12 07:06:06;;;;;;;6.20;2.13;;;;;;;20.69;82.67;157718.22;4884549;29;20055;-78
2022/08/12 07:08:34;;;;;;;5.85;2.30;;;;;;;20.84;80.60;157756.94;4904548;29;20031;-76
2022/08/12 07:11:02;;;;;;;5.28;2.03;;;;;;;20.98;79.16;157791.75;4908425;29;20039;-78
2022/08/12 07:13:36;;;;;;;3.17;2.08;;;;;;;21.02;81.39;157800.81;4912051;29;20169;-78
2022/08/12 07:16:06;;;;;;;3.85;2.15;;;;;;;21.06;78.03;157811.13;4904583;29;20038;-77
2022/08/12 07:18:32;;;;;;;8.02;2.38;;;;;;;21.17;79.44;157840.84;4911743;29;20126;-76
2022/08/12 07:21:03;;;;;;;3.00;2.42;;;;;;;21.24;79.06;157857.59;4916365;29;20059;-77
2022/08/12 07:23:32;;;;;;;2.13;1.67;;;;;;;21.46;79.45;157913.19;4904467;29;20182;-77
2022/08/12 07:26:01;;;;;;;7.20;2.25;;;;;;;21.55;75.65;157935.16;4915074;29;20122;-77
2022/08/12 07:28:29;;;;;;;5.22;1.85;;;;;;;21.55;76.53;157935.16;4896300;29;20048;-79
2022/08/12 07:30:56;;;;;;;7.60;2.03;;;;;;;21.70;76.85;157973.88;4912042;29;20043;-77
2022/08/12 07:33:26;;;;;;;6.18;2.10;;;;;;;21.74;75.82;157982.91;4910073;29;20999;-77
2022/08/12 07:35:54;;;;;;;4.10;2.13;;;;;;;21.89;74.77;158020.38;4915618;29;20498;-77
2022/08/12 07:38:32;;;;;;;7.45;2.20;;;;;;;22.03;75.08;158055.22;4914370;29;20032;-79
2022/08/12 07:41:04;;;;;;;5.47;2.13;;;;;;;22.16;72.94;158088.78;4930249;29;20398;-77
2022/08/12 07:43:32;;;;;;;8.20;1.90;;;;;;;22.19;72.24;158096.56;4883296;29;20044;-77
2022/08/12 07:45:59;;;;;;;8.50;2.45;;;;;;;22.34;72.10;158135.34;4914054;29;20032;-77
2022/08/12 07:48:25;;;;;;;3.47;1.80;;;;;;;22.50;73.49;158174.09;4891457;29;20040;-77
2022/08/12 07:50:52;;;;;;;7.13;2.20;;;;;;;22.70;71.99;158225.78;4905258;29;20043;-77
2022/08/12 07:53:19;;;;;;;6.38;2.03;;;;;;;22.63;71.98;158207.69;4907162;29;20044;-77
2022/08/12 07:55:45;;;;;;;8.15;2.20;;;;;;;22.81;69.45;158252.91;4899210;29;20067;-77
2022/08/12 07:58:11;;;;;;;8.05;2.30;;;;;;;22.88;69.87;158270.97;4907644;29;20036;-77
2022/08/12 08:00:39;;;;;;;4.85;2.17;;;;;;;22.94;69.29;158286.50;4914642;29;20036;-77
2022/08/12 08:03:07;;;;;;;6.07;2.40;;;;;;;22.98;68.63;158295.56;4917426;29;20036;-77
2022/08/12 08:05:38;;;;;;;5.35;1.70;;;;;;;22.99;70.48;158296.81;4900382;29;20059;-77
2022/08/12 08:08:24;;;;;;;5.40;2.10;;;;;;;23.12;70.06;158331.75;4932136;29;20564;-77
2022/08/12 08:12:52;;;;;;;8.35;2.15;;;;;;;23.22;68.09;158356.28;4909392;29;20036;-77
2022/08/12 08:13:39;;;;;;;8.85;2.20;;;;;;;23.40;65.07;158401.53;4929970;29;20399;-77
2022/08/12 08:16:06;;;;;;;7.22;1.60;;;;;;;23.51;65.35;158428.69;4908157;29;20039;-77
2022/08/12 08:18:32;;;;;;;7.07;2.47;;;;;;;23.69;65.65;158475.19;4915730;29;20040;-76
2022/08/12 08:20:57;;;;;;;4.75;2.30;;;;;;;23.80;63.59;158501.13;4909834;29;20513;-76
2022/08/12 08:24:13;;;;;;;5.68;2.25;;;;;;;23.98;63.65;158546.34;4913892;29;20095;-77
2022/08/12 08:26:14;;;;;;;6.60;2.00;;;;;;;24.14;62.23;158587.72;4914729;29;20035;-78
2022/08/12 08:28:41;;;;;;;6.65;2.25;;;;;;;24.20;63.53;158601.94;4910017;29;20040;-78
2022/08/12 08:31:07;;;;;;;5.82;2.25;;;;;;;24.22;62.56;158607.09;4917103;29;20032;-77
2022/08/12 08:33:32;;;;;;;7.22;2.10;;;;;;;24.44;63.70;158662.72;4911245;29;20040;-78
2022/08/12 08:35:59;;;;;;;3.70;1.60;;;;;;;24.51;63.26;158679.56;4912585;29;20482;-77
2022/08/12 08:38:25;;;;;;;2.47;1.88;;;;;;;24.66;62.54;158719.66;4896970;29;20121;-78
2022/08/12 08:43:34;;;;;;;5.85;2.00;;;;;;;25.03;59.32;158811.47;4908928;29;20103;-79
2022/08/12 08:46:04;;;;;;;7.97;1.98;;;;;;;25.15;58.45;158841.25;4881658;29;20044;-76
2022/08/12 08:48:31;;;;;;;8.60;2.08;;;;;;;25.28;57.94;158874.94;4889354;29;20040;-77
2022/08/12 08:50:57;;;;;;;9.07;1.90;;;;;;;25.34;58.69;158889.16;4925726;29;20046;-78
2022/08/12 08:53:23;;;;;;;6.90;1.90;;;;;;;25.42;58.69;158909.84;4895752;29;20035;-76
2022/08/12 08:55:49;;;;;;;4.97;2.03;;;;;;;25.70;57.11;158979.72;4912019;29;20048;-78
2022/08/12 08:58:15;;;;;;;7.57;1.92;;;;;;;25.77;54.32;158999.09;4912337;29;20028;-78
2022/08/12 09:00:41;;;;;;;3.20;1.80;;;;;;;25.91;54.58;159034.03;4901182;29;20111;-77
2022/08/12 09:03:07;;;;;;;3.10;2.08;;;;;;;26.06;55.87;159070.31;4908892;29;20103;-78
2022/08/12 09:05:34;;;;;;;4.95;1.90;;;;;;;26.24;55.21;159116.91;4911511;29;20684;-78
2022/08/12 09:08:01;;;;;;;2.33;1.80;;;;;;;26.24;54.57;159116.91;4914867;29;20174;-78
2022/08/12 09:10:27;;;;;;;5.93;1.98;;;;;;;26.22;53.85;159113.03;4911638;29;20055;-78
2022/08/12 09:15:38;;;;;;;7.07;1.95;;;;;;;26.61;53.41;159211.41;4911870;29;20031;-78
2022/08/12 09:18:06;;;;;;;5.05;1.80;;;;;;;26.73;53.20;159241.22;4909820;29;20379;-78
2022/08/12 09:20:33;;;;;;;7.35;1.77;;;;;;;26.73;53.79;159241.22;4906686;29;20727;-78
2022/08/12 09:23:01;;;;;;;5.75;1.88;;;;;;;26.96;51.96;159298.16;4915595;29;20047;-78
2022/08/12 09:25:31;;;;;;;8.90;1.83;;;;;;;27.03;50.82;159316.31;4911588;29;20119;-78
2022/08/12 09:27:58;;;;;;;6.32;2.05;;;;;;;27.12;51.13;159339.56;4910081;29;20036;-78
2022/08/12 09:30:24;;;;;;;2.72;2.10;;;;;;;27.22;51.37;159362.88;4908841;29;20043;-78
2022/08/12 09:32:51;;;;;;;2.30;1.70;;;;;;;27.22;51.12;159364.19;4913557;29;20036;-78
2022/08/12 09:35:19;;;;;;;5.18;1.92;;;;;;;27.24;50.01;159369.38;4906249;29;20115;-79
2022/08/12 09:37:51;;;;;;;3.72;1.75;;;;;;;27.42;49.52;159413.44;4915655;29;20044;-77
2022/08/12 09:40:19;;;;;;;6.15;1.90;;;;;;;27.55;50.89;159447.09;4909376;29;20047;-78
2022/08/12 09:45:32;;;;;;;3.17;1.90;;;;;;;27.72;49.97;159489.84;4911158;29;20043;-78
2022/08/12 09:48:05;;;;;;;3.22;1.92;;;;;;;27.84;48.13;159520.94;4911704;29;20051;-79
2022/08/12 09:50:35;;;;;;;4.70;1.90;;;;;;;27.82;48.06;159514.44;4905771;29;20092;-76
2022/08/12 09:53:15;;;;;;;5.30;1.83;;;;;;;27.80;48.22;159509.25;4912358;29;20061;-77
2022/08/12 09:55:42;;;;;;;12.15;1.90;;;;;;;27.95;49.11;159548.16;4896767;29;20036;-79
2022/08/12 09:58:08;;;;;;;6.05;1.83;;;;;;;27.97;47.27;159553.31;4928144;29;20024;-78
2022/08/12 10:00:33;;;;;;;4.22;2.13;;;;;;;28.13;46.04;159594.78;4912570;29;20418;-78
2022/08/12 10:03:09;;;;;;;1.95;1.40;;;;;;;28.37;45.38;159653.06;4910682;29;20032;-78
2022/08/12 10:05:43;;;;;;;6.28;1.77;;;;;;;28.50;46.20;159688.06;4906217;29;20035;-78
2022/08/12 10:08:12;;;;;;;5.32;1.75;;;;;;;28.51;45.40;159689.34;4911908;29;20057;-78
2022/08/12 10:13:42;;;;;;;3.80;1.60;;;;;;;28.63;42.88;159720.50;4895621;29;20774;-79
2022/08/12 10:16:18;;;;;;;5.35;1.70;;;;;;;28.64;43.63;159721.78;4906637;29;20051;-79
2022/08/12 10:18:47;;;;;;;6.63;1.63;;;;;;;28.88;42.71;159783.97;4913001;29;20490;-78
2022/08/12 10:21:18;;;;;;;3.60;1.50;;;;;;;28.89;42.46;159785.25;4913666;29;20036;-78
2022/08/12 10:23:46;;;;;;;3.83;1.90;;;;;;;29.03;43.39;159820.28;4911894;29;20058;-78
2022/08/12 10:31:52;;;;;;;3.85;1.60;;;;;;;29.03;41.96;159820.28;4909732;29;20075;-79
2022/08/12 10:34:21;;;;;;;4.70;1.50;;;;;;;29.25;39.30;159877.34;4925966;29;20040;-78
2022/08/12 10:36:48;;;;;;;4.47;1.40;;;;;;;29.51;40.88;159943.41;4889636;29;20044;-78
2022/08/12 10:39:16;;;;;;;4.68;1.67;;;;;;;29.81;39.13;160018.63;4907893;29;20028;-77
2022/08/12 10:44:27;;;;;;;4.07;1.55;;;;;;;29.72;36.66;159993.97;4911512;29;20034;-77
2022/08/12 10:46:55;;;;;;;1.95;1.35;;;;;;;29.83;36.93;160022.53;4886598;29;20036;-78
2022/08/12 10:49:26;;;;;;;3.55;1.30;;;;;;;29.87;37.60;160032.88;4913222;29;21209;-77
2022/08/12 10:51:55;;;;;;;3.20;1.40;;;;;;;29.97;36.14;160058.84;4907771;29;20036;-77
2022/08/12 10:54:22;;;;;;;3.70;1.30;;;;;;;29.94;35.16;160049.75;4913394;29;20195;-78
2022/08/12 10:56:48;;;;;;;6.03;1.40;;;;;;;30.01;34.57;160067.91;4896058;29;20040;-77
2022/08/12 10:59:15;;;;;;;2.47;1.30;;;;;;;30.22;35.78;160121.06;4912697;29;20028;-78
2022/08/12 11:01:41;;;;;;;2.20;1.30;;;;;;;30.27;33.95;160133.97;4907738;29;20044;-78
2022/08/12 11:04:12;;;;;;;4.45;1.33;;;;;;;30.13;32.97;160097.72;4914970;29;20051;-79
2022/08/12 11:06:46;;;;;;;2.05;1.27;;;;;;;30.28;35.31;160137.88;4896894;29;20040;-79
2022/08/12 11:09:30;;;;;;;1.90;1.20;;;;;;;30.44;34.63;160176.81;4913723;29;20042;-79
2022/08/12 11:11:58;;;;;;;5.43;1.50;;;;;;;30.58;33.87;160211.84;4912586;29;20073;-78
2022/08/12 11:14:27;;;;;;;3.60;1.20;;;;;;;30.64;33.65;160228.69;4892351;29;20058;-79
2022/08/12 11:16:56;;;;;;;4.05;1.50;;;;;;;30.58;32.34;160211.84;4910626;29;20035;-78
2022/08/12 11:19:26;;;;;;;2.17;1.33;;;;;;;30.51;33.05;160193.69;4897929;29;20118;-79
2022/08/12 11:21:54;;;;;;;1.75;1.30;;;;;;;30.46;32.97;160182.03;4899885;29;20080;-78
2022/08/12 11:24:21;;;;;;;2.92;1.30;;;;;;;30.77;32.80;160261.09;4914554;29;20474;-78
2022/08/12 11:26:50;;;;;;;3.45;1.40;;;;;;;30.79;31.54;160265.00;4931019;29;20087;-79
2022/08/12 11:29:20;;;;;;;2.67;1.20;;;;;;;30.89;33.68;160289.63;4897815;29;20028;-79
2022/08/12 11:31:47;;;;;;;7.20;1.20;;;;;;;30.81;30.39;160270.19;4917041;29;20035;-79
2022/08/12 11:34:13;;;;;;;3.60;1.40;;;;;;;30.56;30.16;160207.97;4911698;29;20044;-79
2022/08/12 11:36:54;;;;;;;5.60;1.40;;;;;;;30.55;29.84;160204.06;4899684;29;20040;-80
2022/08/12 11:39:21;;;;;;;1.77;1.10;;;;;;;30.80;31.22;160268.91;4915381;29;20032;-78
2022/08/12 11:41:47;;;;;;;3.50;1.30;;;;;;;30.78;30.90;160262.41;4914089;29;20366;-77
2022/08/12 11:44:13;;;;;;;3.85;1.13;;;;;;;30.97;30.68;160311.75;4913820;29;20175;-76
2022/08/12 11:46:39;;;;;;;3.20;1.20;;;;;;;30.88;29.92;160287.06;4922283;29;20032;-78
2022/08/12 11:49:06;;;;;;;4.93;1.10;;;;;;;30.87;29.08;160285.75;4910687;29;20036;-80
2022/08/12 11:51:33;;;;;;;8.75;1.25;;;;;;;30.85;29.32;160281.88;4930608;29;20064;-79
2022/08/12 11:53:59;;;;;;;2.97;1.23;;;;;;;31.03;28.91;160327.31;4929941;29;20087;-77
2022/08/12 11:56:24;;;;;;;3.78;1.25;;;;;;;30.93;28.28;160301.38;4911939;29;20392;-81
2022/08/12 11:58:50;;;;;;;4.20;1.15;;;;;;;30.97;29.15;160310.47;4929453;29;20039;-78
2022/08/12 12:01:16;;;;;;;3.63;1.23;;;;;;;31.10;29.31;160342.84;4894318;29;20580;-78
2022/08/12 12:03:42;;;;;;;5.10;1.23;;;;;;;31.29;30.68;160390.84;4893176;29;20131;-79
2022/08/12 12:06:07;;;;;;;2.67;1.73;;;;;;;31.30;28.94;160394.72;4910140;29;20032;-79
2022/08/12 12:08:33;;;;;;;1.48;1.13;;;;;;;31.31;29.98;160396.06;4916640;29;20032;-78
2022/08/12 12:10:59;;;;;;;2.03;1.30;;;;;;;31.53;28.39;160451.84;4894611;29;20043;-78
2022/08/12 12:13:24;;;;;;;1.58;1.30;;;;;;;31.53;30.40;160451.84;4914146;29;20474;-78
2022/08/12 12:15:50;;;;;;;1.33;1.05;;;;;;;31.50;30.41;160445.38;4898340;29;20494;-79
2022/08/12 12:18:21;;;;;;;1.75;1.00;;;;;;;31.55;30.03;160457.03;4914158;29;20119;-78
2022/08/12 12:20:46;;;;;;;7.97;1.60;;;;;;;31.45;29.23;160432.34;4915360;29;20036;-78
2022/08/12 12:23:12;;;;;;;3.30;1.30;;;;;;;31.51;29.18;160447.94;4910293;29;20096;-78
2022/08/12 12:25:38;;;;;;;5.53;1.40;;;;;;;31.27;28.56;160386.97;4915171;29;20067;-78
2022/08/12 12:28:04;;;;;;;1.75;1.17;;;;;;;31.47;29.92;160436.28;4914396;29;20040;-78
2022/08/12 12:30:29;;;;;;;5.18;1.20;;;;;;;31.72;29.48;160499.84;4902577;29;20114;-78
2022/08/12 12:32:55;;;;;;;2.90;1.35;;;;;;;31.77;28.53;160512.81;4905690;29;20036;-78
2022/08/12 12:35:21;;;;;;;5.65;1.20;;;;;;;31.78;29.77;160516.72;4910185;29;20052;-78
2022/08/12 12:37:58;;;;;;;6.30;1.55;;;;;;;31.82;29.30;160527.09;4894741;29;20088;-78
2022/08/12 12:40:25;;;;;;;5.20;1.50;;;;;;;32.19;29.40;160620.56;4910284;29;20036;-77
2022/08/12 12:42:51;;;;;;;2.70;1.40;;;;;;;32.20;30.14;160623.13;4911203;29;20046;-77
2022/08/12 12:45:17;;;;;;;4.15;1.27;;;;;;;32.43;29.83;160680.22;4915254;29;20028;-77
2022/08/12 12:48:03;;;;;;;3.65;1.38;;;;;;;32.50;30.78;160697.13;4901282;29;20072;-77
2022/08/12 12:50:31;;;;;;;2.70;1.10;;;;;;;32.67;29.61;160740.00;4908886;29;20036;-78
2022/08/12 12:52:57;;;;;;;4.72;1.30;;;;;;;32.63;28.65;160729.63;4925872;29;20487;-77
2022/08/12 12:55:23;;;;;;;1.98;1.33;;;;;;;32.64;28.11;160732.19;4913468;29;20040;-77
2022/08/12 12:57:50;;;;;;;2.92;1.60;;;;;;;32.93;28.38;160807.47;4903440;29;21907;-79
2022/08/12 13:00:17;;;;;;;1.67;1.27;;;;;;;32.84;27.67;160784.09;4910548;29;20036;-77
2022/08/12 13:02:56;;;;;;;2.45;1.20;;;;;;;33.13;28.20;160858.16;4915063;29;20052;-78
2022/08/12 13:05:26;;;;;;;7.65;1.70;;;;;;;33.22;27.41;160878.91;4915025;29;20124;-78
2022/08/12 13:07:55;;;;;;;5.95;1.40;;;;;;;33.05;27.74;160837.31;4913996;29;20080;-79
2022/08/12 13:10:22;;;;;;;3.55;1.13;;;;;;;33.39;26.62;160923.03;4914359;29;20064;-78
2022/08/12 13:12:52;;;;;;;3.10;1.48;;;;;;;33.41;26.84;160926.94;4909316;29;20091;-78